sensor_id;sensor_type;location;lat;lon;timestamp;P1;durP1;ratioP1;P2;durP2;ratioP2
60819;SDS011;46641;48.904;9.126;2022-08-01T00:04:20;2.50;;;2.30;;
60819;SDS011;46641;48.904;9.126;2022-08-01T00:09:12;4.22;;;2.60;;
60819;SDS011;46641;48.904;9.126;2022-08-01T00:14:02;2.97;;;2.60;;
60819;SDS011;46641;48.904;9.126;2022-08-01T00:18:53;2.63;;;2.20;;
60819;SDS011;46641;48.904;9.126;2022-08-01T00:23:43;3.40;;;2.63;;
60819;SDS011;46641;48.904;9.126;2022-08-01T00:28:35;2.83;;;2.63;;
60819;SDS011;46641;48.904;9.126;2022-08-01T00:33:25;4.83;;;2.57;;
60819;SDS011;46641;48.904;9.126;2022-08-01T00:38:16;2.80;;;2.60;;
60819;SDS011;46641;48.904;9.126;2022-08-01T00:43:06;2.60;;;2.33;;
60819;SDS011;46641;48.904;9.126;2022-08-01T00:47:56;2.70;;;2.50;;
60819;SDS011;46641;48.904;9.126;2022-08-01T00:52:47;3.00;;;2.70;;
60819;SDS011;46641;48.904;9.126;2022-08-01T00:57:38;2.70;;;2.50;;
60819;SDS011;46641;48.904;9.126;2022-08-01T01:02:29;2.83;;;2.57;;
60819;SDS011;46641;48.904;9.126;2022-08-01T01:07:25;2.70;;;2.50;;
60819;SDS011;46641;48.904;9.126;2022-08-01T01:17:37;3.03;;;2.83;;
60819;SDS011;46641;48.904;9.126;2022-08-01T01:28:16;3.00;;;2.80;;
60819;SDS011;46641;48.904;9.126;2022-08-01T01:33:02;2.67;;;2.33;;
60819;SDS011;46641;48.904;9.126;2022-08-01T01:38:02;2.97;;;2.77;;
60819;SDS011;46641;48.904;9.126;2022-08-01T01:42:57;3.10;;;2.90;;
60819;SDS011;46641;48.904;9.126;2022-08-01T01:47:48;2.73;;;2.53;;
60819;SDS011;46641;48.904;9.126;2022-08-01T01:52:39;2.87;;;2.67;;
60819;SDS011;46641;48.904;9.126;2022-08-01T01:57:32;3.13;;;2.50;;
60819;SDS011;46641;48.904;9.126;2022-08-01T02:02:25;3.07;;;2.87;;
60819;SDS011;46641;48.904;9.126;2022-08-01T02:07:19;3.20;;;2.90;;
60819;SDS011;46641;48.904;9.126;2022-08-01T02:12:12;3.87;;;2.80;;
60819;SDS011;46641;48.904;9.126;2022-08-01T02:17:04;2.97;;;2.67;;
60819;SDS011;46641;48.904;9.126;2022-08-01T02:21:56;2.60;;;2.40;;
60819;SDS011;46641;48.904;9.126;2022-08-01T02:26:51;2.57;;;2.40;;
60819;SDS011;46641;48.904;9.126;2022-08-01T02:31:44;3.10;;;2.70;;
60819;SDS011;46641;48.904;9.126;2022-08-01T02:36:37;2.60;;;2.40;;
60819;SDS011;46641;48.904;9.126;2022-08-01T02:41:28;2.67;;;2.47;;
60819;SDS011;46641;48.904;9.126;2022-08-01T02:46:29;3.63;;;3.13;;
60819;SDS011;46641;48.904;9.126;2022-08-01T02:51:25;3.30;;;3.00;;
60819;SDS011;46641;48.904;9.126;2022-08-01T02:56:16;4.23;;;2.70;;
60819;SDS011;46641;48.904;9.126;2022-08-01T03:01:09;2.93;;;2.67;;
60819;SDS011;46641;48.904;9.126;2022-08-01T03:06:01;3.17;;;2.80;;
60819;SDS011;46641;48.904;9.126;2022-08-01T03:10:52;2.93;;;2.60;;
60819;SDS011;46641;48.904;9.126;2022-08-01T03:15:45;2.87;;;2.57;;
60819;SDS011;46641;48.904;9.126;2022-08-01T03:20:36;2.93;;;2.73;;
60819;SDS011;46641;48.904;9.126;2022-08-01T03:25:27;2.80;;;2.60;;
60819;SDS011;46641;48.904;9.126;2022-08-01T03:30:19;3.03;;;2.60;;
60819;SDS011;46641;48.904;9.126;2022-08-01T03:35:11;2.90;;;2.67;;
60819;SDS011;46641;48.904;9.126;2022-08-01T03:40:06;2.73;;;2.47;;
60819;SDS011;46641;48.904;9.126;2022-08-01T03:45:02;4.77;;;2.77;;
60819;SDS011;46641;48.904;9.126;2022-08-01T03:49:59;2.83;;;2.63;;
60819;SDS011;46641;48.904;9.126;2022-08-01T03:54:51;2.27;;;2.17;;
60819;SDS011;46641;48.904;9.126;2022-08-01T03:59:45;2.37;;;2.17;;
60819;SDS011;46641;48.904;9.126;2022-08-01T04:04:36;2.80;;;2.60;;
60819;SDS011;46641;48.904;9.126;2022-08-01T04:09:27;2.33;;;2.23;;
60819;SDS011;46641;48.904;9.126;2022-08-01T04:14:17;3.00;;;2.50;;
60819;SDS011;46641;48.904;9.126;2022-08-01T04:19:07;2.77;;;2.57;;
60819;SDS011;46641;48.904;9.126;2022-08-01T04:23:59;3.67;;;2.50;;
60819;SDS011;46641;48.904;9.126;2022-08-01T04:28:54;2.93;;;2.53;;
60819;SDS011;46641;48.904;9.126;2022-08-01T04:33:47;2.67;;;2.47;;
60819;SDS011;46641;48.904;9.126;2022-08-01T04:38:42;3.27;;;2.53;;
60819;SDS011;46641;48.904;9.126;2022-08-01T04:43:36;2.80;;;2.60;;
60819;SDS011;46641;48.904;9.126;2022-08-01T04:48:27;2.60;;;2.40;;
60819;SDS011;46641;48.904;9.126;2022-08-01T04:53:19;3.43;;;2.83;;
60819;SDS011;46641;48.904;9.126;2022-08-01T04:58:11;2.77;;;2.50;;
60819;SDS011;46641;48.904;9.126;2022-08-01T05:03:03;2.80;;;2.60;;
60819;SDS011;46641;48.904;9.126;2022-08-01T05:07:53;2.73;;;2.53;;
60819;SDS011;46641;48.904;9.126;2022-08-01T05:12:43;2.50;;;2.30;;
60819;SDS011;46641;48.904;9.126;2022-08-01T05:17:34;2.60;;;2.40;;
60819;SDS011;46641;48.904;9.126;2022-08-01T05:22:24;4.03;;;2.47;;
60819;SDS011;46641;48.904;9.126;2022-08-01T05:27:15;3.47;;;2.57;;
60819;SDS011;46641;48.904;9.126;2022-08-01T05:32:06;2.90;;;2.60;;
60819;SDS011;46641;48.904;9.126;2022-08-01T05:36:56;3.77;;;2.13;;
60819;SDS011;46641;48.904;9.126;2022-08-01T05:41:46;3.43;;;2.10;;
60819;SDS011;46641;48.904;9.126;2022-08-01T05:46:37;2.90;;;2.37;;
60819;SDS011;46641;48.904;9.126;2022-08-01T05:51:27;2.70;;;2.33;;
60819;SDS011;46641;48.904;9.126;2022-08-01T05:56:18;3.23;;;2.63;;
60819;SDS011;46641;48.904;9.126;2022-08-01T06:01:09;3.10;;;2.30;;
60819;SDS011;46641;48.904;9.126;2022-08-01T06:06:00;2.93;;;2.20;;
60819;SDS011;46641;48.904;9.126;2022-08-01T06:10:50;2.13;;;2.00;;
60819;SDS011;46641;48.904;9.126;2022-08-01T06:15:40;2.53;;;2.10;;
60819;SDS011;46641;48.904;9.126;2022-08-01T06:20:31;2.27;;;2.03;;
60819;SDS011;46641;48.904;9.126;2022-08-01T06:25:21;5.40;;;2.13;;
60819;SDS011;46641;48.904;9.126;2022-08-01T06:30:12;2.03;;;1.80;;
60819;SDS011;46641;48.904;9.126;2022-08-01T06:35:03;5.43;;;2.53;;
60819;SDS011;46641;48.904;9.126;2022-08-01T06:39:54;2.97;;;2.13;;
60819;SDS011;46641;48.904;9.126;2022-08-01T06:44:44;1.97;;;1.80;;
60819;SDS011;46641;48.904;9.126;2022-08-01T06:49:35;2.47;;;1.93;;
60819;SDS011;46641;48.904;9.126;2022-08-01T06:54:25;2.07;;;1.53;;
60819;SDS011;46641;48.904;9.126;2022-08-01T06:59:15;2.37;;;1.83;;
60819;SDS011;46641;48.904;9.126;2022-08-01T07:04:06;2.10;;;2.00;;
60819;SDS011;46641;48.904;9.126;2022-08-01T07:08:57;2.97;;;1.83;;
60819;SDS011;46641;48.904;9.126;2022-08-01T07:13:47;2.10;;;1.80;;
60819;SDS011;46641;48.904;9.126;2022-08-01T07:18:37;2.20;;;2.00;;
60819;SDS011;46641;48.904;9.126;2022-08-01T07:23:28;1.83;;;1.70;;
60819;SDS011;46641;48.904;9.126;2022-08-01T07:28:18;2.60;;;1.90;;
60819;SDS011;46641;48.904;9.126;2022-08-01T07:33:08;2.30;;;2.10;;
60819;SDS011;46641;48.904;9.126;2022-08-01T07:37:59;3.07;;;2.30;;
60819;SDS011;46641;48.904;9.126;2022-08-01T07:42:49;5.00;;;2.17;;
60819;SDS011;46641;48.904;9.126;2022-08-01T07:47:40;2.83;;;2.10;;
60819;SDS011;46641;48.904;9.126;2022-08-01T07:52:30;2.90;;;2.07;;
60819;SDS011;46641;48.904;9.126;2022-08-01T07:57:21;2.90;;;1.80;;
60819;SDS011;46641;48.904;9.126;2022-08-01T08:02:12;2.23;;;1.80;;
60819;SDS011;46641;48.904;9.126;2022-08-01T08:07:02;2.23;;;1.80;;
60819;SDS011;46641;48.904;9.126;2022-08-01T08:11:52;1.93;;;1.83;;
60819;SDS011;46641;48.904;9.126;2022-08-01T08:16:43;2.40;;;2.00;;
60819;SDS011;46641;48.904;9.126;2022-08-01T08:21:34;3.03;;;2.27;;
60819;SDS011;46641;48.904;9.126;2022-08-01T08:26:24;2.20;;;2.00;;
60819;SDS011;46641;48.904;9.126;2022-08-01T08:31:15;2.57;;;2.07;;
60819;SDS011;46641;48.904;9.126;2022-08-01T08:36:05;2.07;;;1.97;;
60819;SDS011;46641;48.904;9.126;2022-08-01T08:40:56;2.83;;;2.50;;
60819;SDS011;46641;48.904;9.126;2022-08-01T08:45:47;3.53;;;2.73;;
60819;SDS011;46641;48.904;9.126;2022-08-01T08:50:38;2.70;;;2.50;;
60819;SDS011;46641;48.904;9.126;2022-08-01T08:55:30;4.07;;;2.80;;
60819;SDS011;46641;48.904;9.126;2022-08-01T09:00:21;5.63;;;3.37;;
60819;SDS011;46641;48.904;9.126;2022-08-01T09:05:12;4.30;;;3.80;;
60819;SDS011;46641;48.904;9.126;2022-08-01T09:10:02;5.17;;;3.73;;
60819;SDS011;46641;48.904;9.126;2022-08-01T09:14:54;4.23;;;3.83;;
60819;SDS011;46641;48.904;9.126;2022-08-01T09:19:45;5.17;;;4.67;;
60819;SDS011;46641;48.904;9.126;2022-08-01T09:24:41;5.33;;;3.93;;
60819;SDS011;46641;48.904;9.126;2022-08-01T09:29:32;4.30;;;3.80;;
60819;SDS011;46641;48.904;9.126;2022-08-01T09:34:26;3.10;;;2.90;;
60819;SDS011;46641;48.904;9.126;2022-08-01T09:39:18;3.77;;;3.47;;
60819;SDS011;46641;48.904;9.126;2022-08-01T09:44:10;4.27;;;3.03;;
60819;SDS011;46641;48.904;9.126;2022-08-01T09:49:01;3.27;;;2.87;;
60819;SDS011;46641;48.904;9.126;2022-08-01T09:53:54;3.50;;;3.10;;
60819;SDS011;46641;48.904;9.126;2022-08-01T10:03:40;2.80;;;2.60;;
60819;SDS011;46641;48.904;9.126;2022-08-01T10:08:37;2.30;;;2.20;;
60819;SDS011;46641;48.904;9.126;2022-08-01T10:13:35;2.63;;;2.47;;
60819;SDS011;46641;48.904;9.126;2022-08-01T10:18:26;3.00;;;2.60;;
60819;SDS011;46641;48.904;9.126;2022-08-01T10:23:20;2.90;;;2.65;;
60819;SDS011;46641;48.904;9.126;2022-08-01T10:28:14;2.58;;;2.38;;
60819;SDS011;46641;48.904;9.126;2022-08-01T10:33:08;2.78;;;2.58;;
60819;SDS011;46641;48.904;9.126;2022-08-01T10:38:01;2.50;;;2.30;;
60819;SDS011;46641;48.904;9.126;2022-08-01T10:42:51;2.88;;;2.65;;
60819;SDS011;46641;48.904;9.126;2022-08-01T10:47:44;2.45;;;2.35;;
60819;SDS011;46641;48.904;9.126;2022-08-01T10:52:41;2.50;;;2.30;;
60819;SDS011;46641;48.904;9.126;2022-08-01T10:57:41;2.28;;;2.08;;
60819;SDS011;46641;48.904;9.126;2022-08-01T11:02:35;2.75;;;2.53;;
60819;SDS011;46641;48.904;9.126;2022-08-01T11:07:47;2.60;;;2.40;;
60819;SDS011;46641;48.904;9.126;2022-08-01T11:12:42;3.08;;;2.85;;
60819;SDS011;46641;48.904;9.126;2022-08-01T11:17:34;3.00;;;2.80;;
60819;SDS011;46641;48.904;9.126;2022-08-01T11:22:25;3.35;;;2.90;;
60819;SDS011;46641;48.904;9.126;2022-08-01T11:27:16;3.20;;;2.88;;
60819;SDS011;46641;48.904;9.126;2022-08-01T11:32:24;2.80;;;2.60;;
60819;SDS011;46641;48.904;9.126;2022-08-01T11:37:23;3.67;;;2.88;;
60819;SDS011;46641;48.904;9.126;2022-08-01T11:42:18;3.13;;;2.80;;
60819;SDS011;46641;48.904;9.126;2022-08-01T11:47:10;2.35;;;2.15;;
60819;SDS011;46641;48.904;9.126;2022-08-01T11:52:09;2.90;;;2.55;;
60819;SDS011;46641;48.904;9.126;2022-08-01T11:57:03;2.67;;;2.47;;
60819;SDS011;46641;48.904;9.126;2022-08-01T12:01:58;3.03;;;2.70;;
60819;SDS011;46641;48.904;9.126;2022-08-01T12:06:49;2.37;;;2.20;;
60819;SDS011;46641;48.904;9.126;2022-08-01T12:11:39;2.50;;;2.30;;
60819;SDS011;46641;48.904;9.126;2022-08-01T12:16:29;2.33;;;2.22;;
60819;SDS011;46641;48.904;9.126;2022-08-01T12:21:20;2.65;;;2.45;;
60819;SDS011;46641;48.904;9.126;2022-08-01T12:26:10;2.97;;;2.72;;
60819;SDS011;46641;48.904;9.126;2022-08-01T12:31:00;2.45;;;2.28;;
60819;SDS011;46641;48.904;9.126;2022-08-01T12:35:51;2.50;;;2.30;;
60819;SDS011;46641;48.904;9.126;2022-08-01T12:40:43;2.53;;;2.30;;
60819;SDS011;46641;48.904;9.126;2022-08-01T12:45:39;3.60;;;2.53;;
60819;SDS011;46641;48.904;9.126;2022-08-01T12:50:34;4.40;;;2.83;;
60819;SDS011;46641;48.904;9.126;2022-08-01T12:55:28;3.78;;;2.35;;
60819;SDS011;46641;48.904;9.126;2022-08-01T13:05:11;3.30;;;2.35;;
60819;SDS011;46641;48.904;9.126;2022-08-01T13:10:02;2.20;;;2.10;;
60819;SDS011;46641;48.904;9.126;2022-08-01T13:14:53;2.83;;;2.60;;
60819;SDS011;46641;48.904;9.126;2022-08-01T13:19:44;3.67;;;2.22;;
60819;SDS011;46641;48.904;9.126;2022-08-01T13:24:34;3.03;;;2.50;;
60819;SDS011;46641;48.904;9.126;2022-08-01T13:29:35;2.55;;;2.05;;
60819;SDS011;46641;48.904;9.126;2022-08-01T13:34:33;2.25;;;2.15;;
60819;SDS011;46641;48.904;9.126;2022-08-01T13:39:24;2.03;;;1.83;;
60819;SDS011;46641;48.904;9.126;2022-08-01T13:44:33;1.92;;;1.70;;
60819;SDS011;46641;48.904;9.126;2022-08-01T13:49:23;2.20;;;2.00;;
60819;SDS011;46641;48.904;9.126;2022-08-01T13:54:13;2.33;;;2.00;;
60819;SDS011;46641;48.904;9.126;2022-08-01T13:59:04;2.92;;;2.38;;
60819;SDS011;46641;48.904;9.126;2022-08-01T14:03:54;3.00;;;1.98;;
60819;SDS011;46641;48.904;9.126;2022-08-01T14:08:44;3.13;;;2.20;;
60819;SDS011;46641;48.904;9.126;2022-08-01T14:13:35;2.67;;;2.35;;
60819;SDS011;46641;48.904;9.126;2022-08-01T14:18:28;2.50;;;2.30;;
60819;SDS011;46641;48.904;9.126;2022-08-01T14:23:18;4.07;;;2.22;;
60819;SDS011;46641;48.904;9.126;2022-08-01T14:28:09;2.47;;;2.25;;
60819;SDS011;46641;48.904;9.126;2022-08-01T14:33:00;2.65;;;2.30;;
60819;SDS011;46641;48.904;9.126;2022-08-01T14:37:50;2.38;;;2.05;;
60819;SDS011;46641;48.904;9.126;2022-08-01T14:42:41;2.38;;;2.17;;
60819;SDS011;46641;48.904;9.126;2022-08-01T14:47:34;2.72;;;2.33;;
60819;SDS011;46641;48.904;9.126;2022-08-01T14:52:26;2.22;;;2.13;;
60819;SDS011;46641;48.904;9.126;2022-08-01T14:57:16;2.78;;;2.35;;
60819;SDS011;46641;48.904;9.126;2022-08-01T15:02:08;2.42;;;2.22;;
60819;SDS011;46641;48.904;9.126;2022-08-01T15:07:00;3.38;;;1.95;;
60819;SDS011;46641;48.904;9.126;2022-08-01T15:11:50;2.25;;;2.05;;
60819;SDS011;46641;48.904;9.126;2022-08-01T15:16:41;2.50;;;2.13;;
60819;SDS011;46641;48.904;9.126;2022-08-01T15:21:31;3.85;;;2.08;;
60819;SDS011;46641;48.904;9.126;2022-08-01T15:26:22;2.30;;;2.10;;
60819;SDS011;46641;48.904;9.126;2022-08-01T15:31:12;6.57;;;2.70;;
60819;SDS011;46641;48.904;9.126;2022-08-01T15:36:02;4.93;;;2.13;;
60819;SDS011;46641;48.904;9.126;2022-08-01T15:40:53;2.15;;;1.95;;
60819;SDS011;46641;48.904;9.126;2022-08-01T15:45:43;2.00;;;1.80;;
60819;SDS011;46641;48.904;9.126;2022-08-01T15:50:34;2.75;;;1.73;;
60819;SDS011;46641;48.904;9.126;2022-08-01T15:55:27;1.77;;;1.42;;
60819;SDS011;46641;48.904;9.126;2022-08-01T16:00:17;1.73;;;1.63;;
60819;SDS011;46641;48.904;9.126;2022-08-01T16:05:08;2.90;;;2.00;;
60819;SDS011;46641;48.904;9.126;2022-08-01T16:09:59;2.13;;;1.70;;
60819;SDS011;46641;48.904;9.126;2022-08-01T16:14:49;2.03;;;1.67;;
60819;SDS011;46641;48.904;9.126;2022-08-01T16:19:39;2.10;;;1.90;;
60819;SDS011;46641;48.904;9.126;2022-08-01T16:24:29;2.03;;;1.83;;
60819;SDS011;46641;48.904;9.126;2022-08-01T16:29:20;5.38;;;2.03;;
60819;SDS011;46641;48.904;9.126;2022-08-01T16:34:10;1.83;;;1.65;;
60819;SDS011;46641;48.904;9.126;2022-08-01T16:39:01;1.98;;;1.42;;
60819;SDS011;46641;48.904;9.126;2022-08-01T16:43:51;3.22;;;2.03;;
60819;SDS011;46641;48.904;9.126;2022-08-01T16:48:41;2.10;;;1.90;;
60819;SDS011;46641;48.904;9.126;2022-08-01T16:53:33;3.92;;;1.60;;
60819;SDS011;46641;48.904;9.126;2022-08-01T16:58:23;2.97;;;1.77;;
60819;SDS011;46641;48.904;9.126;2022-08-01T17:03:14;2.92;;;1.90;;
60819;SDS011;46641;48.904;9.126;2022-08-01T17:08:05;3.47;;;1.98;;
60819;SDS011;46641;48.904;9.126;2022-08-01T17:12:57;2.05;;;1.83;;
60819;SDS011;46641;48.904;9.126;2022-08-01T17:17:47;1.55;;;1.33;;
60819;SDS011;46641;48.904;9.126;2022-08-01T17:22:40;1.65;;;1.52;;
60819;SDS011;46641;48.904;9.126;2022-08-01T17:27:30;3.03;;;1.88;;
60819;SDS011;46641;48.904;9.126;2022-08-01T17:32:20;1.67;;;1.58;;
60819;SDS011;46641;48.904;9.126;2022-08-01T17:37:11;2.65;;;1.42;;
60819;SDS011;46641;48.904;9.126;2022-08-01T17:42:01;1.85;;;1.70;;
60819;SDS011;46641;48.904;9.126;2022-08-01T17:46:51;2.10;;;1.67;;
60819;SDS011;46641;48.904;9.126;2022-08-01T17:51:42;2.92;;;1.50;;
60819;SDS011;46641;48.904;9.126;2022-08-01T17:56:33;5.60;;;2.10;;
60819;SDS011;46641;48.904;9.126;2022-08-01T18:01:23;1.83;;;1.40;;
60819;SDS011;46641;48.904;9.126;2022-08-01T18:06:15;2.88;;;1.60;;
60819;SDS011;46641;48.904;9.126;2022-08-01T18:11:06;1.70;;;1.60;;
60819;SDS011;46641;48.904;9.126;2022-08-01T18:15:57;3.72;;;1.50;;
60819;SDS011;46641;48.904;9.126;2022-08-01T18:20:47;5.03;;;1.80;;
60819;SDS011;46641;48.904;9.126;2022-08-01T18:25:38;1.60;;;1.33;;
60819;SDS011;46641;48.904;9.126;2022-08-01T18:30:29;1.90;;;1.75;;
60819;SDS011;46641;48.904;9.126;2022-08-01T18:35:21;3.45;;;1.75;;
60819;SDS011;46641;48.904;9.126;2022-08-01T18:40:12;2.28;;;1.42;;
60819;SDS011;46641;48.904;9.126;2022-08-01T18:45:02;3.15;;;1.80;;
60819;SDS011;46641;48.904;9.126;2022-08-01T18:49:53;2.65;;;1.40;;
60819;SDS011;46641;48.904;9.126;2022-08-01T18:54:43;2.17;;;1.48;;
60819;SDS011;46641;48.904;9.126;2022-08-01T18:59:34;2.13;;;1.30;;
60819;SDS011;46641;48.904;9.126;2022-08-01T19:04:24;1.38;;;1.27;;
60819;SDS011;46641;48.904;9.126;2022-08-01T19:09:14;2.58;;;1.30;;
60819;SDS011;46641;48.904;9.126;2022-08-01T19:14:05;1.42;;;1.33;;
60819;SDS011;46641;48.904;9.126;2022-08-01T19:18:55;2.30;;;1.25;;
60819;SDS011;46641;48.904;9.126;2022-08-01T19:23:45;1.98;;;1.50;;
60819;SDS011;46641;48.904;9.126;2022-08-01T19:28:56;1.58;;;1.40;;
60819;SDS011;46641;48.904;9.126;2022-08-01T19:33:50;2.53;;;1.90;;
60819;SDS011;46641;48.904;9.126;2022-08-01T19:38:41;2.00;;;1.38;;
60819;SDS011;46641;48.904;9.126;2022-08-01T19:43:34;6.13;;;2.17;;
60819;SDS011;46641;48.904;9.126;2022-08-01T19:48:25;1.20;;;1.10;;
60819;SDS011;46641;48.904;9.126;2022-08-01T19:53:16;1.55;;;1.30;;
60819;SDS011;46641;48.904;9.126;2022-08-01T19:58:10;1.30;;;1.20;;
60819;SDS011;46641;48.904;9.126;2022-08-01T20:03:02;1.30;;;1.20;;
60819;SDS011;46641;48.904;9.126;2022-08-01T20:07:53;1.05;;;1.05;;
60819;SDS011;46641;48.904;9.126;2022-08-01T20:12:43;1.60;;;1.10;;
60819;SDS011;46641;48.904;9.126;2022-08-01T20:17:33;1.30;;;1.20;;
60819;SDS011;46641;48.904;9.126;2022-08-01T20:22:24;1.38;;;1.23;;
60819;SDS011;46641;48.904;9.126;2022-08-01T20:27:22;2.67;;;1.38;;
60819;SDS011;46641;48.904;9.126;2022-08-01T20:32:14;1.42;;;1.23;;
60819;SDS011;46641;48.904;9.126;2022-08-01T20:37:06;2.03;;;1.38;;
60819;SDS011;46641;48.904;9.126;2022-08-01T20:42:00;2.35;;;1.17;;
60819;SDS011;46641;48.904;9.126;2022-08-01T20:46:52;1.13;;;1.02;;
60819;SDS011;46641;48.904;9.126;2022-08-01T20:51:43;1.50;;;1.20;;
60819;SDS011;46641;48.904;9.126;2022-08-01T20:56:40;1.65;;;1.40;;
60819;SDS011;46641;48.904;9.126;2022-08-01T21:01:46;1.50;;;1.40;;
60819;SDS011;46641;48.904;9.126;2022-08-01T21:06:42;3.58;;;1.50;;
60819;SDS011;46641;48.904;9.126;2022-08-01T21:11:48;2.42;;;1.30;;
60819;SDS011;46641;48.904;9.126;2022-08-01T21:16:40;2.08;;;1.67;;
60819;SDS011;46641;48.904;9.126;2022-08-01T21:21:34;1.88;;;1.58;;
60819;SDS011;46641;48.904;9.126;2022-08-01T21:26:30;2.00;;;1.35;;
60819;SDS011;46641;48.904;9.126;2022-08-01T21:31:23;1.17;;;1.17;;
60819;SDS011;46641;48.904;9.126;2022-08-01T21:36:16;2.28;;;1.17;;
60819;SDS011;46641;48.904;9.126;2022-08-01T21:41:07;1.23;;;1.00;;
60819;SDS011;46641;48.904;9.126;2022-08-01T21:45:58;2.33;;;1.40;;
60819;SDS011;46641;48.904;9.126;2022-08-01T21:55:56;2.20;;;1.52;;
60819;SDS011;46641;48.904;9.126;2022-08-01T22:01:00;2.38;;;1.63;;
60819;SDS011;46641;48.904;9.126;2022-08-01T22:05:55;2.20;;;1.40;;
60819;SDS011;46641;48.904;9.126;2022-08-01T22:10:47;1.67;;;1.58;;
60819;SDS011;46641;48.904;9.126;2022-08-01T22:15:45;2.03;;;1.50;;
60819;SDS011;46641;48.904;9.126;2022-08-01T22:20:36;2.13;;;1.60;;
60819;SDS011;46641;48.904;9.126;2022-08-01T22:25:27;2.25;;;1.80;;
60819;SDS011;46641;48.904;9.126;2022-08-01T22:30:18;2.00;;;1.80;;
60819;SDS011;46641;48.904;9.126;2022-08-01T22:35:10;2.03;;;1.92;;
60819;SDS011;46641;48.904;9.126;2022-08-01T22:40:06;2.00;;;1.90;;
60819;SDS011;46641;48.904;9.126;2022-08-01T22:45:04;2.97;;;2.13;;
60819;SDS011;46641;48.904;9.126;2022-08-01T22:50:04;2.10;;;1.90;;
60819;SDS011;46641;48.904;9.126;2022-08-01T22:55:08;1.50;;;1.40;;
60819;SDS011;46641;48.904;9.126;2022-08-01T23:00:09;1.70;;;1.60;;
60819;SDS011;46641;48.904;9.126;2022-08-01T23:05:01;1.77;;;1.58;;
60819;SDS011;46641;48.904;9.126;2022-08-01T23:09:56;2.28;;;1.63;;
60819;SDS011;46641;48.904;9.126;2022-08-01T23:14:47;2.30;;;1.65;;
60819;SDS011;46641;48.904;9.126;2022-08-01T23:19:40;1.73;;;1.63;;
60819;SDS011;46641;48.904;9.126;2022-08-01T23:24:30;1.63;;;1.53;;
60819;SDS011;46641;48.904;9.126;2022-08-01T23:29:25;2.00;;;1.70;;
60819;SDS011;46641;48.904;9.126;2022-08-01T23:34:16;1.93;;;1.70;;
60819;SDS011;46641;48.904;9.126;2022-08-01T23:39:07;2.30;;;2.00;;
60819;SDS011;46641;48.904;9.126;2022-08-01T23:43:57;2.00;;;1.90;;
60819;SDS011;46641;48.904;9.126;2022-08-01T23:48:47;2.45;;;2.25;;
60819;SDS011;46641;48.904;9.126;2022-08-01T23:53:37;1.97;;;1.80;;
60819;SDS011;46641;48.904;9.126;2022-08-01T23:58:28;1.83;;;1.73;;
